createdAt,value
2022-11-17T00:00:45.648Z,1.98
2022-11-17T00:03:16.130Z,1.90
2022-11-17T00:08:14.687Z,2.15
2022-11-17T00:10:45.051Z,2.33
2022-11-17T00:13:32.148Z,2.30
2022-11-17T00:16:01.433Z,1.92
2022-11-17T00:18:48.187Z,2.20
2022-11-17T00:21:23.828Z,2.67
2022-11-17T00:23:53.359Z,2.40
2022-11-17T00:26:25.071Z,2.00
2022-11-17T00:28:55.355Z,2.28
2022-11-17T00:31:43.244Z,1.90
2022-11-17T00:34:15.376Z,2.35
2022-11-17T00:36:46.436Z,2.35
2022-11-17T00:39:17.578Z,2.22
2022-11-17T00:41:48.116Z,2.35
2022-11-17T00:44:17.881Z,3.03
2022-11-17T00:46:47.054Z,2.70
2022-11-17T00:49:16.378Z,2.67
2022-11-17T00:51:45.403Z,2.50
2022-11-17T00:54:15.696Z,2.30
2022-11-17T00:56:46.246Z,2.28
2022-11-17T00:59:15.983Z,2.40
2022-11-17T01:01:45.723Z,2.00
2022-11-17T01:04:16.175Z,1.90
2022-11-17T01:06:46.883Z,2.05
2022-11-17T01:09:18.258Z,2.22
2022-11-17T01:11:49.745Z,2.28
2022-11-17T01:14:20.982Z,2.45
2022-11-17T01:16:49.994Z,2.47
2022-11-17T01:19:20.218Z,2.07
2022-11-17T01:21:49.255Z,2.22
2022-11-17T01:24:19.328Z,2.58
2022-11-17T01:26:51.816Z,2.40
2022-11-17T01:29:21.195Z,2.33
2022-11-17T01:31:53.000Z,2.03
2022-11-17T01:34:22.364Z,2.40
2022-11-17T01:37:08.725Z,2.25
2022-11-17T01:39:38.120Z,2.35
2022-11-17T01:42:16.065Z,2.05
2022-11-17T01:45:03.478Z,2.15
2022-11-17T01:47:43.952Z,2.53
2022-11-17T01:50:25.909Z,2.30
2022-11-17T01:52:57.328Z,2.45
2022-11-17T01:55:31.891Z,2.70
2022-11-17T01:58:07.608Z,2.50
2022-11-17T02:00:36.830Z,2.40
2022-11-17T02:03:07.313Z,2.53
2022-11-17T02:05:53.599Z,2.42
2022-11-17T02:08:26.563Z,2.50
2022-11-17T02:10:56.127Z,2.40
2022-11-17T02:13:27.197Z,2.50
2022-11-17T02:15:56.419Z,2.70
2022-11-17T02:18:25.466Z,2.53
2022-11-17T02:21:19.396Z,2.50
2022-11-17T02:24:20.402Z,2.40
2022-11-17T02:27:18.069Z,2.35
2022-11-17T02:29:54.311Z,2.45
2022-11-17T02:32:31.697Z,2.40
2022-11-17T02:35:12.927Z,2.70
2022-11-17T02:37:53.827Z,2.63
2022-11-17T02:40:27.638Z,2.20
2022-11-17T02:43:17.906Z,2.25
2022-11-17T02:45:53.182Z,2.60
2022-11-17T02:48:28.517Z,2.60
2022-11-17T02:50:59.288Z,2.33
2022-11-17T02:53:30.653Z,2.30
2022-11-17T02:56:02.634Z,2.38
2022-11-17T02:58:31.903Z,2.30
2022-11-17T03:01:18.612Z,2.50
2022-11-17T03:04:01.891Z,2.08
2022-11-17T03:06:40.747Z,2.20
2022-11-17T03:09:19.756Z,2.25
2022-11-17T03:11:59.103Z,2.45
2022-11-17T03:14:37.542Z,2.45
2022-11-17T03:17:14.909Z,2.40
2022-11-17T03:19:49.059Z,2.70
2022-11-17T03:22:24.505Z,2.33
2022-11-17T03:24:58.159Z,2.20
2022-11-17T03:27:30.777Z,2.30
2022-11-17T03:30:01.811Z,2.47
2022-11-17T03:32:35.294Z,2.08
2022-11-17T03:35:09.571Z,2.25
2022-11-17T03:37:43.849Z,2.10
2022-11-17T03:40:16.186Z,2.03
2022-11-17T03:42:52.590Z,2.40
2022-11-17T03:45:24.920Z,2.50
2022-11-17T03:48:01.444Z,2.22
2022-11-17T03:50:37.424Z,2.38
2022-11-17T03:53:07.471Z,2.30
2022-11-17T03:58:13.815Z,2.30
2022-11-17T04:00:44.397Z,2.25
2022-11-17T04:05:45.287Z,2.33
2022-11-17T04:08:14.236Z,2.22
2022-11-17T04:10:57.292Z,2.50
2022-11-17T04:13:45.732Z,2.20
2022-11-17T04:16:14.956Z,2.15
2022-11-17T04:18:45.304Z,2.30
2022-11-17T04:21:14.527Z,2.42
2022-11-17T04:23:43.455Z,2.63
2022-11-17T04:26:32.410Z,2.70
2022-11-17T04:29:01.338Z,2.65
2022-11-17T04:31:32.244Z,2.70
2022-11-17T04:34:04.243Z,2.72
2022-11-17T04:36:36.654Z,2.55
2022-11-17T04:39:06.209Z,3.05
2022-11-17T04:41:54.056Z,2.60
2022-11-17T04:44:24.725Z,2.50
2022-11-17T04:46:54.587Z,2.60
2022-11-17T04:49:25.991Z,2.45
2022-11-17T04:51:56.066Z,2.70
2022-11-17T04:54:26.205Z,2.83
2022-11-17T04:59:25.189Z,2.65
2022-11-17T05:01:54.495Z,2.70
2022-11-17T05:04:42.523Z,2.75
2022-11-17T05:07:11.798Z,2.90
2022-11-17T05:09:40.767Z,2.90
2022-11-17T05:12:28.464Z,3.03
2022-11-17T05:14:57.390Z,3.33
2022-11-17T05:17:25.684Z,2.88
2022-11-17T05:19:57.285Z,2.65
2022-11-17T05:22:44.080Z,3.00
2022-11-17T05:25:13.084Z,2.70
2022-11-17T05:27:42.327Z,2.87
2022-11-17T05:30:12.683Z,2.75
2022-11-17T05:32:41.927Z,2.60
2022-11-17T05:35:12.487Z,2.90
2022-11-17T05:37:41.703Z,2.60
2022-11-17T05:40:11.446Z,3.00
2022-11-17T05:42:40.682Z,2.78
2022-11-17T05:45:10.759Z,2.67
2022-11-17T05:50:09.606Z,3.00
2022-11-17T05:52:40.230Z,2.90
2022-11-17T05:57:38.499Z,3.08
2022-11-17T06:00:08.908Z,3.20
2022-11-17T06:02:48.544Z,3.00
2022-11-17T06:05:20.426Z,3.00
2022-11-17T06:07:51.441Z,3.45
2022-11-17T06:10:20.405Z,3.15
2022-11-17T06:12:49.684Z,2.97
2022-11-17T06:15:19.274Z,3.22
2022-11-17T06:17:52.459Z,3.67
2022-11-17T06:20:24.461Z,3.47
2022-11-17T06:22:57.078Z,3.30
2022-11-17T06:25:26.263Z,3.40
2022-11-17T06:27:56.952Z,3.83
2022-11-17T06:32:56.442Z,3.35
2022-11-17T06:35:26.143Z,3.47
2022-11-17T06:37:56.754Z,3.50
2022-11-17T06:43:10.486Z,3.70
2022-11-17T06:45:40.940Z,3.42
2022-11-17T06:48:11.379Z,3.22
2022-11-17T06:50:40.336Z,3.08
2022-11-17T06:53:12.808Z,2.90
2022-11-17T06:55:41.827Z,3.15
2022-11-17T06:58:12.664Z,3.00
2022-11-17T07:00:41.667Z,2.70
2022-11-17T07:03:12.103Z,3.13
2022-11-17T07:05:41.318Z,3.00
2022-11-17T07:08:12.111Z,3.10
2022-11-17T07:10:46.428Z,3.08
2022-11-17T07:13:18.297Z,2.90
2022-11-17T07:15:48.088Z,3.20
2022-11-17T07:18:18.088Z,2.88
2022-11-17T07:20:47.416Z,2.60
2022-11-17T07:23:18.027Z,2.72
2022-11-17T07:28:15.977Z,3.25
2022-11-17T07:30:44.914Z,2.97
2022-11-17T07:33:14.158Z,3.17
2022-11-17T07:35:43.115Z,2.88
2022-11-17T07:38:12.497Z,2.78
2022-11-17T07:40:42.832Z,3.10
2022-11-17T07:43:12.728Z,3.10
2022-11-17T07:45:41.691Z,2.90
2022-11-17T07:48:10.947Z,3.17
2022-11-17T07:50:41.562Z,3.03
2022-11-17T07:53:10.801Z,3.30
2022-11-17T07:55:41.105Z,3.58
2022-11-17T07:58:10.299Z,3.47
2022-11-17T08:00:39.332Z,3.13
2022-11-17T08:03:10.028Z,3.55
2022-11-17T08:05:43.274Z,3.53
2022-11-17T08:08:13.465Z,3.65
2022-11-17T08:10:44.087Z,4.17
2022-11-17T08:13:15.433Z,4.13
2022-11-17T08:15:44.416Z,3.90
2022-11-17T08:18:13.659Z,4.10
2022-11-17T08:20:42.594Z,4.45
2022-11-17T08:23:11.820Z,3.80
2022-11-17T08:25:40.797Z,3.65
2022-11-17T08:28:11.463Z,4.40
2022-11-17T08:33:09.751Z,3.80
2022-11-17T08:35:38.754Z,3.60
2022-11-17T08:38:09.364Z,4.35
2022-11-17T08:43:07.702Z,3.83
2022-11-17T08:45:38.012Z,3.50
2022-11-17T08:48:07.712Z,3.83
2022-11-17T08:50:37.245Z,3.95
2022-11-17T08:53:06.480Z,4.20
2022-11-17T08:55:41.307Z,4.18
2022-11-17T08:58:12.270Z,4.50
2022-11-17T09:03:13.115Z,3.83
2022-11-17T09:05:43.501Z,4.15
2022-11-17T09:11:06.805Z,4.15
2022-11-17T09:13:36.908Z,3.80
2022-11-17T09:16:08.809Z,7.90
2022-11-17T09:18:39.375Z,4.30
2022-11-17T09:21:10.359Z,4.72
2022-11-17T09:23:40.322Z,4.45
2022-11-17T09:26:11.967Z,4.40
2022-11-17T09:28:41.445Z,4.75
2022-11-17T09:31:13.974Z,4.28
2022-11-17T09:33:43.993Z,4.47
2022-11-17T09:36:14.276Z,4.55
2022-11-17T09:38:44.030Z,4.88
2022-11-17T09:41:28.485Z,4.70
2022-11-17T09:44:07.578Z,5.20
2022-11-17T09:46:53.021Z,4.95
2022-11-17T09:49:33.363Z,4.68
2022-11-17T09:52:08.051Z,4.30
2022-11-17T09:54:44.383Z,4.43
2022-11-17T09:57:22.357Z,4.20
2022-11-17T10:00:00.581Z,4.43
2022-11-17T10:02:31.217Z,4.50
2022-11-17T10:05:01.181Z,4.53
2022-11-17T10:07:33.064Z,4.25
2022-11-17T10:10:04.569Z,4.18
2022-11-17T10:12:42.824Z,4.55
2022-11-17T10:15:25.443Z,4.50
2022-11-17T10:17:55.811Z,4.22
2022-11-17T10:20:25.258Z,4.45
2022-11-17T10:22:57.164Z,4.07
2022-11-17T10:25:38.657Z,4.53
2022-11-17T10:28:10.047Z,4.07
2022-11-17T10:30:39.541Z,4.22
2022-11-17T10:33:14.260Z,3.90
2022-11-17T10:35:56.049Z,4.03
2022-11-17T10:38:28.929Z,4.72
2022-11-17T10:41:00.604Z,4.10
2022-11-17T10:43:32.850Z,4.13
2022-11-17T10:46:05.956Z,3.97
2022-11-17T10:48:37.731Z,4.15
2022-11-17T10:51:22.106Z,4.05
2022-11-17T10:54:04.994Z,3.78
2022-11-17T10:56:40.507Z,4.13
2022-11-17T10:59:17.790Z,3.72
2022-11-17T11:01:48.808Z,4.00
2022-11-17T11:04:33.803Z,4.03
2022-11-17T11:07:13.012Z,4.43
2022-11-17T11:09:49.351Z,4.28
2022-11-17T11:12:26.004Z,4.35
2022-11-17T11:14:58.398Z,3.95
2022-11-17T11:17:30.758Z,3.90
2022-11-17T11:20:01.531Z,4.10
2022-11-17T11:22:37.017Z,4.22
2022-11-17T11:25:19.114Z,4.15
2022-11-17T11:28:05.308Z,3.85
2022-11-17T11:30:43.693Z,4.40
2022-11-17T11:33:32.442Z,4.60
2022-11-17T11:36:20.304Z,4.10
2022-11-17T11:38:56.529Z,4.75
2022-11-17T11:41:54.680Z,4.40
2022-11-17T11:44:52.132Z,4.00
2022-11-17T11:47:35.624Z,4.40
2022-11-17T11:50:12.926Z,4.57
2022-11-17T11:52:49.164Z,4.80
2022-11-17T11:55:23.090Z,4.38
2022-11-17T11:57:56.285Z,4.53
2022-11-17T12:00:25.867Z,4.45
2022-11-17T12:03:04.146Z,4.57
2022-11-17T12:05:38.961Z,4.72
2022-11-17T12:08:19.474Z,5.00
2022-11-17T12:10:55.579Z,4.47
2022-11-17T12:13:25.602Z,4.63
2022-11-17T12:18:45.903Z,4.57
2022-11-17T12:21:22.396Z,4.78
2022-11-17T12:24:14.106Z,5.13
2022-11-17T12:26:43.663Z,4.75
2022-11-17T12:29:29.269Z,4.93
2022-11-17T12:32:00.197Z,4.82
2022-11-17T12:34:31.736Z,4.85
2022-11-17T12:37:30.810Z,4.90
2022-11-17T12:40:04.141Z,4.85
2022-11-17T12:42:34.783Z,4.80
2022-11-17T12:45:08.679Z,5.05
2022-11-17T12:47:40.181Z,5.40
2022-11-17T12:50:58.233Z,4.40
2022-11-17T12:53:39.887Z,4.80
2022-11-17T12:56:45.843Z,4.18
2022-11-17T12:59:49.887Z,4.07
2022-11-17T13:02:57.467Z,4.00
2022-11-17T13:05:30.134Z,4.20
2022-11-17T13:08:23.343Z,4.90
2022-11-17T13:11:03.569Z,5.10
2022-11-17T13:13:36.772Z,4.15
2022-11-17T13:16:07.021Z,3.72
2022-11-17T13:18:40.481Z,4.13
2022-11-17T13:21:28.958Z,4.18
2022-11-17T13:23:59.105Z,4.20
2022-11-17T13:26:31.587Z,4.38
2022-11-17T13:29:11.279Z,4.53
2022-11-17T14:31:34.142Z,6.25
2022-11-17T14:34:04.314Z,7.18
2022-11-17T14:36:34.514Z,7.35
2022-11-17T14:39:03.862Z,6.93
2022-11-17T14:41:33.131Z,6.95
2022-11-17T14:44:02.077Z,6.93
2022-11-17T14:46:31.311Z,6.68
2022-11-17T14:49:01.675Z,6.00
2022-11-17T14:51:30.897Z,6.78
2022-11-17T14:53:59.965Z,6.35
2022-11-17T14:56:29.249Z,6.43
2022-11-17T14:58:59.715Z,6.28
2022-11-17T15:01:31.123Z,6.68
2022-11-17T15:04:15.739Z,6.60
2022-11-17T15:06:52.508Z,6.40
2022-11-17T15:09:21.540Z,6.00
2022-11-17T15:11:52.079Z,6.25
2022-11-17T15:14:21.249Z,7.40
2022-11-17T15:16:50.496Z,6.15
2022-11-17T15:19:21.059Z,5.97
2022-11-17T15:21:50.310Z,6.28
2022-11-17T15:24:19.280Z,7.43
2022-11-17T15:26:48.520Z,7.57
2022-11-17T15:29:17.951Z,8.88
2022-11-17T15:31:47.572Z,7.70
2022-11-17T15:34:20.232Z,8.05
2022-11-17T15:36:51.382Z,7.57
2022-11-17T15:41:50.750Z,7.25
2022-11-17T15:44:19.912Z,7.05
2022-11-17T15:46:49.299Z,6.73
2022-11-17T15:49:18.977Z,6.07
2022-11-17T15:51:48.394Z,6.43
2022-11-17T15:54:21.052Z,6.03
2022-11-17T15:56:50.962Z,5.65
2022-11-17T15:59:20.172Z,5.87
2022-11-17T16:01:50.087Z,6.22
2022-11-17T16:04:19.066Z,6.00
2022-11-17T16:06:48.719Z,5.97
2022-11-17T16:09:19.241Z,5.93
2022-11-17T16:11:48.757Z,6.75
2022-11-17T16:14:17.747Z,6.80
2022-11-17T16:16:47.982Z,6.70
2022-11-17T16:19:17.109Z,6.60
2022-11-17T16:21:46.634Z,6.85
2022-11-17T16:24:15.833Z,6.35
2022-11-17T16:26:46.487Z,6.18
2022-11-17T16:31:44.848Z,6.05
2022-11-17T16:34:15.627Z,6.45
2022-11-17T16:36:45.914Z,6.18
2022-11-17T16:39:17.801Z,6.60
2022-11-17T16:41:50.158Z,6.80
2022-11-17T16:44:20.513Z,6.15
2022-11-17T16:46:50.797Z,6.60
2022-11-17T16:49:20.873Z,6.93
2022-11-17T16:51:51.702Z,7.10
2022-11-17T16:54:21.383Z,7.93
2022-11-17T16:56:52.012Z,8.68
2022-11-17T17:02:14.889Z,8.13
2022-11-17T17:04:45.999Z,9.35
2022-11-17T17:07:16.341Z,9.63
2022-11-17T17:09:45.378Z,8.95
2022-11-17T17:12:17.526Z,8.50
2022-11-17T17:17:16.085Z,8.25
2022-11-17T17:19:45.042Z,9.20
2022-11-17T17:22:14.276Z,8.60
2022-11-17T17:24:44.323Z,8.80
2022-11-17T17:27:13.592Z,9.00
2022-11-17T17:29:44.118Z,9.52
2022-11-17T17:32:13.392Z,9.27
2022-11-17T17:34:42.598Z,11.93
2022-11-17T17:37:11.843Z,10.77
2022-11-17T17:39:43.165Z,10.00
2022-11-17T17:42:13.386Z,9.32
2022-11-17T17:44:43.718Z,10.27
2022-11-17T17:47:13.022Z,9.32
2022-11-17T17:49:41.986Z,9.60
2022-11-17T17:52:13.972Z,10.15
2022-11-17T17:54:43.103Z,11.02
2022-11-17T17:57:12.314Z,9.68
2022-11-17T17:59:41.262Z,10.13
2022-11-17T18:02:12.433Z,9.77
2022-11-17T18:04:41.496Z,10.32
2022-11-17T18:07:10.753Z,9.55
2022-11-17T18:09:39.748Z,8.32
2022-11-17T18:12:09.430Z,9.30
2022-11-17T18:14:38.367Z,8.77
2022-11-17T18:17:08.214Z,10.10
2022-11-17T18:19:38.543Z,10.32
2022-11-17T18:22:07.805Z,10.35
2022-11-17T18:24:36.776Z,10.48
2022-11-17T18:27:06.032Z,11.77
2022-11-17T18:29:35.128Z,11.48
2022-11-17T18:32:04.458Z,11.35
2022-11-17T18:34:34.495Z,11.65
2022-11-17T18:39:35.212Z,13.18
2022-11-17T18:42:04.581Z,17.67
2022-11-17T18:44:33.525Z,17.50
2022-11-17T18:47:03.372Z,16.02
2022-11-17T18:49:34.502Z,14.57
2022-11-17T18:52:05.361Z,13.15
2022-11-17T18:54:34.411Z,13.18
2022-11-17T18:57:04.003Z,14.45
2022-11-17T18:59:32.937Z,14.85
2022-11-17T19:02:02.923Z,12.48
2022-11-17T19:04:31.967Z,12.88
2022-11-17T19:07:01.229Z,12.30
2022-11-17T19:09:31.605Z,14.63
2022-11-17T19:12:00.877Z,18.08
2022-11-17T19:14:29.821Z,13.00
2022-11-17T19:16:59.091Z,10.32
2022-11-17T19:19:28.182Z,10.50
2022-11-17T19:21:57.408Z,10.32
2022-11-17T19:24:26.546Z,11.75
2022-11-17T19:26:57.403Z,10.73
2022-11-17T19:29:26.384Z,10.35
2022-11-17T19:31:56.819Z,11.18
2022-11-17T19:34:25.769Z,10.77
2022-11-17T19:36:55.003Z,11.73
2022-11-17T19:39:23.934Z,11.85
2022-11-17T19:41:53.661Z,11.80
2022-11-17T19:44:23.969Z,13.70
2022-11-17T19:46:54.079Z,13.32
2022-11-17T19:49:23.011Z,10.52
2022-11-17T19:51:52.285Z,12.35
2022-11-17T19:54:21.435Z,13.25
2022-11-17T19:56:50.674Z,13.73
2022-11-17T19:59:19.934Z,10.32
2022-11-17T20:01:50.844Z,10.05
2022-11-17T20:04:20.076Z,8.77
2022-11-17T20:06:49.864Z,9.73
2022-11-17T20:09:19.062Z,9.00
2022-11-17T20:11:48.527Z,8.52
2022-11-17T20:14:17.498Z,8.10
2022-11-17T20:16:47.478Z,8.05
2022-11-17T20:19:18.684Z,8.32
2022-11-17T20:21:48.663Z,8.85
2022-11-17T20:24:17.618Z,9.27
2022-11-17T20:26:47.091Z,8.68
2022-11-17T20:29:16.316Z,8.90
2022-11-17T20:31:45.668Z,9.55
2022-11-17T20:34:14.919Z,9.90
2022-11-17T20:36:45.542Z,9.45
2022-11-17T20:39:15.903Z,9.80
2022-11-17T20:41:45.633Z,8.10
2022-11-17T20:44:24.723Z,10.20
2022-11-17T20:46:54.929Z,12.63
2022-11-17T20:49:24.765Z,10.65
2022-11-17T20:51:55.773Z,8.40
2022-11-17T20:54:24.725Z,10.27
2022-11-17T20:56:53.942Z,7.78
2022-11-17T20:59:23.303Z,9.55
2022-11-17T21:01:52.849Z,9.25
2022-11-17T21:04:21.870Z,9.68
2022-11-17T21:06:54.026Z,13.98
2022-11-17T21:09:23.158Z,11.35
2022-11-17T21:11:58.173Z,9.47
2022-11-17T21:14:27.815Z,9.20
2022-11-17T21:17:00.303Z,13.70
2022-11-17T21:19:31.131Z,11.52
2022-11-17T21:22:03.909Z,10.65
2022-11-17T21:24:33.338Z,9.60
2022-11-17T21:27:02.566Z,11.57
2022-11-17T21:29:32.989Z,10.50
2022-11-17T21:32:02.533Z,9.63
2022-11-17T21:34:31.480Z,9.27
2022-11-17T21:37:02.094Z,9.93
2022-11-17T21:42:00.872Z,7.72
2022-11-17T21:44:29.798Z,8.45
2022-11-17T21:46:59.026Z,7.95
2022-11-17T21:49:27.988Z,9.05
2022-11-17T21:51:57.342Z,8.27
2022-11-17T21:54:28.092Z,7.17
2022-11-17T21:56:57.323Z,8.85
2022-11-17T21:59:26.290Z,8.05
2022-11-17T22:01:55.840Z,7.80
2022-11-17T22:04:24.791Z,8.00
2022-11-17T22:06:54.135Z,7.35
2022-11-17T22:09:23.127Z,6.28
2022-11-17T22:11:55.696Z,6.10
2022-11-17T22:14:25.138Z,6.80
2022-11-17T22:16:56.460Z,6.70
2022-11-17T22:19:28.039Z,6.25
2022-11-17T22:21:57.342Z,6.65
2022-11-17T22:24:27.286Z,7.03
2022-11-17T22:26:57.939Z,8.32
2022-11-17T22:31:55.916Z,10.30
2022-11-17T22:34:24.842Z,10.00
2022-11-17T22:36:54.081Z,13.15
2022-11-17T22:39:23.063Z,12.07
2022-11-17T22:41:52.313Z,12.40
2022-11-17T22:44:22.927Z,10.25
2022-11-17T22:46:52.179Z,9.13
2022-11-17T22:49:21.123Z,9.52
2022-11-17T22:52:07.064Z,7.80
2022-11-17T22:54:36.181Z,7.07
2022-11-17T22:57:05.435Z,7.60
2022-11-17T22:59:36.258Z,7.35
2022-11-17T23:02:05.514Z,7.10
2022-11-17T23:04:34.994Z,7.10
2022-11-17T23:07:04.330Z,7.85
2022-11-17T23:23:26.852Z,7.10
2022-11-17T23:26:01.546Z,8.98
2022-11-17T23:28:30.472Z,9.30
2022-11-17T23:31:00.653Z,8.45
2022-11-17T23:33:35.191Z,10.18
2022-11-17T23:54:18.534Z,6.22
2022-11-17T23:56:53.155Z,5.68
2022-11-17T23:59:22.680Z,6.32
